createdAt,value
2017-06-26T00:01:41.395Z,98913.76
2017-06-26T00:04:08.458Z,98920.53
2017-06-26T00:06:35.517Z,98916.63
2017-06-26T00:09:02.607Z,98915.38
2017-06-26T00:11:29.691Z,98918.08
2017-06-26T00:13:56.832Z,98918.97
2017-06-26T00:16:23.891Z,98920.86
2017-06-26T00:18:50.953Z,98917.30
2017-06-26T00:21:18.044Z,98920.98
2017-06-26T00:23:45.110Z,98910.98
2017-06-26T00:26:12.227Z,98916.49
2017-06-26T00:28:39.292Z,98917.81
2017-06-26T00:31:06.354Z,98910.71
2017-06-26T00:33:33.445Z,98902.81
2017-06-26T00:36:00.504Z,98900.19
2017-06-26T00:38:27.625Z,98902.65
2017-06-26T00:40:54.687Z,98900.52
2017-06-26T00:43:21.754Z,98902.98
2017-06-26T00:45:48.858Z,98898.30
2017-06-26T00:48:15.921Z,98902.36
2017-06-26T00:50:43.038Z,98899.30
2017-06-26T00:53:10.100Z,98900.34
2017-06-26T00:55:37.160Z,98902.08
2017-06-26T00:58:04.248Z,98908.08
2017-06-26T01:00:31.306Z,98902.55
2017-06-26T01:02:58.407Z,98901.80
2017-06-26T01:05:25.472Z,98903.00
2017-06-26T01:07:52.537Z,98903.12
2017-06-26T01:10:19.626Z,98899.50
2017-06-26T01:12:46.684Z,98896.02
2017-06-26T01:15:13.787Z,98904.98
2017-06-26T01:17:40.850Z,98897.13
2017-06-26T01:20:07.909Z,98895.92
2017-06-26T01:22:35.013Z,98892.12
2017-06-26T01:25:02.071Z,98890.06
2017-06-26T01:27:29.162Z,98888.22
2017-06-26T01:29:56.262Z,98887.63
2017-06-26T01:32:23.330Z,98883.14
2017-06-26T01:34:50.423Z,98885.14
2017-06-26T01:37:17.493Z,98880.66
2017-06-26T01:39:44.603Z,98878.42
2017-06-26T01:42:11.668Z,98880.09
2017-06-26T01:44:38.734Z,98881.31
2017-06-26T01:47:05.840Z,98879.25
2017-06-26T01:49:32.937Z,98876.62
2017-06-26T01:52:00.091Z,98878.25
2017-06-26T01:54:27.152Z,98873.56
2017-06-26T01:56:54.213Z,98874.31
2017-06-26T01:59:21.318Z,98876.66
2017-06-26T02:01:48.381Z,98873.49
2017-06-26T02:04:15.489Z,98865.71
2017-06-26T02:06:42.572Z,98868.38
2017-06-26T02:09:09.728Z,98867.49
2017-06-26T02:11:36.823Z,98867.49
2017-06-26T02:14:03.886Z,98865.66
2017-06-26T02:16:31.009Z,98867.89
2017-06-26T02:18:58.077Z,98865.80
2017-06-26T02:21:25.146Z,98857.84
2017-06-26T02:23:52.232Z,98854.47
2017-06-26T02:26:19.293Z,98852.27
2017-06-26T02:28:46.401Z,98852.16
2017-06-26T02:31:13.472Z,98852.48
2017-06-26T02:33:40.533Z,98851.78
2017-06-26T02:36:07.633Z,98854.02
2017-06-26T02:38:34.692Z,98855.91
2017-06-26T02:41:01.820Z,98855.73
2017-06-26T02:43:28.884Z,98858.61
2017-06-26T02:45:56.045Z,98854.81
2017-06-26T02:48:23.135Z,98858.11
2017-06-26T02:50:50.258Z,98853.42
2017-06-26T02:53:17.377Z,98851.05
2017-06-26T02:55:44.459Z,98856.31
2017-06-26T02:58:11.518Z,98857.20
2017-06-26T03:00:38.615Z,98856.73
2017-06-26T03:03:05.683Z,98848.45
2017-06-26T03:05:32.798Z,98847.64
2017-06-26T03:07:59.869Z,98856.34
2017-06-26T03:10:26.933Z,98855.09
2017-06-26T03:12:54.036Z,98851.30
2017-06-26T03:15:21.136Z,98852.55
2017-06-26T03:17:48.248Z,98854.92
2017-06-26T03:20:15.313Z,98858.48
2017-06-26T03:22:42.379Z,98860.33
2017-06-26T03:25:09.467Z,98853.26
2017-06-26T03:27:36.519Z,98857.06
2017-06-26T03:30:03.604Z,98853.65
2017-06-26T03:32:30.694Z,98856.56
2017-06-26T03:34:57.756Z,98851.88
2017-06-26T03:37:24.851Z,98858.06
2017-06-26T03:39:51.929Z,98853.23
2017-06-26T03:42:19.041Z,98857.88
2017-06-26T03:44:46.099Z,98857.52
2017-06-26T03:47:13.176Z,98853.02
2017-06-26T03:49:40.275Z,98856.86
2017-06-26T03:52:07.927Z,98860.72
2017-06-26T03:54:35.137Z,98858.63
2017-06-26T03:57:02.200Z,98855.86
2017-06-26T03:59:29.334Z,98858.48
2017-06-26T04:01:56.499Z,98856.39
2017-06-26T04:04:23.556Z,98857.60
2017-06-26T04:06:50.667Z,98862.36
2017-06-26T04:09:17.729Z,98860.16
2017-06-26T04:11:44.793Z,98862.22
2017-06-26T04:14:11.893Z,98859.13
2017-06-26T04:16:38.952Z,98858.02
2017-06-26T04:19:06.065Z,98855.08
2017-06-26T04:21:33.119Z,98863.81
2017-06-26T04:24:00.188Z,98863.56
2017-06-26T04:26:27.284Z,98866.16
2017-06-26T04:28:54.342Z,98864.52
2017-06-26T04:31:21.448Z,98860.51
2017-06-26T04:33:48.516Z,98861.64
2017-06-26T04:36:15.586Z,98863.88
2017-06-26T04:38:42.689Z,98862.14
2017-06-26T04:41:09.748Z,98856.85
2017-06-26T04:43:36.873Z,98863.56
2017-06-26T04:46:03.934Z,98867.89
2017-06-26T04:48:30.991Z,98862.28
2017-06-26T04:50:58.085Z,98870.59
2017-06-26T04:53:25.148Z,98866.66
2017-06-26T04:55:52.357Z,98870.52
2017-06-26T04:58:19.425Z,98872.62
2017-06-26T05:00:46.488Z,98872.58
2017-06-26T05:03:13.582Z,98869.59
2017-06-26T05:05:40.644Z,98876.70
2017-06-26T05:08:07.750Z,98875.59
2017-06-26T05:10:34.929Z,98877.55
2017-06-26T05:13:01.988Z,98874.35
2017-06-26T05:15:29.080Z,98867.78
2017-06-26T05:17:56.155Z,98871.16
2017-06-26T05:20:23.259Z,98872.50
2017-06-26T05:22:50.327Z,98870.80
2017-06-26T05:25:17.401Z,98871.11
2017-06-26T05:30:29.684Z,98873.55
2017-06-26T05:32:56.791Z,98874.02
2017-06-26T05:35:23.856Z,98874.41
2017-06-26T05:37:50.917Z,98866.95
2017-06-26T05:40:18.015Z,98867.73
2017-06-26T05:42:45.080Z,98867.22
2017-06-26T05:45:12.293Z,98869.78
2017-06-26T05:47:39.356Z,98872.83
2017-06-26T05:50:06.417Z,98875.39
2017-06-26T05:52:33.509Z,98877.09
2017-06-26T05:55:00.574Z,98881.82
2017-06-26T05:57:27.680Z,98883.48
2017-06-26T05:59:54.741Z,98881.67
2017-06-26T06:02:21.798Z,98881.59
2017-06-26T06:04:48.888Z,98883.34
2017-06-26T06:07:15.956Z,98880.06
2017-06-26T06:09:43.071Z,98873.98
2017-06-26T06:12:10.132Z,98880.92
2017-06-26T06:14:37.197Z,98878.61
2017-06-26T06:17:04.293Z,98878.61
2017-06-26T06:19:31.360Z,98881.63
2017-06-26T06:21:58.480Z,98874.66
2017-06-26T06:24:25.541Z,98875.83
2017-06-26T06:26:52.599Z,98873.59
2017-06-26T06:29:19.704Z,98877.11
2017-06-26T06:31:46.766Z,98873.48
2017-06-26T06:34:13.893Z,98870.00
2017-06-26T06:36:40.952Z,98865.55
2017-06-26T06:39:08.021Z,98859.48
2017-06-26T06:41:35.124Z,98862.03
2017-06-26T06:44:02.221Z,98866.44
2017-06-26T06:46:29.347Z,98866.80
2017-06-26T06:48:56.512Z,98864.98
2017-06-26T06:51:23.577Z,98862.34
2017-06-26T06:53:50.675Z,98868.03
2017-06-26T06:56:17.733Z,98857.94
2017-06-26T06:58:44.843Z,98853.57
2017-06-26T07:01:11.901Z,98858.76
2017-06-26T07:03:38.952Z,98856.09
2017-06-26T07:06:06.040Z,98852.57
2017-06-26T07:08:33.100Z,98853.42
2017-06-26T07:11:00.221Z,98853.84
2017-06-26T07:13:27.288Z,98858.61
2017-06-26T07:15:54.459Z,98855.94
2017-06-26T07:18:21.551Z,98849.83
2017-06-26T07:20:48.635Z,98849.25
2017-06-26T07:23:15.752Z,98839.59
2017-06-26T07:25:42.820Z,98837.80
2017-06-26T07:28:09.881Z,98834.28
2017-06-26T07:30:36.993Z,98838.66
2017-06-26T07:33:04.053Z,98835.06
2017-06-26T07:35:31.127Z,98828.06
2017-06-26T07:37:58.245Z,98830.23
2017-06-26T07:40:25.308Z,98824.97
2017-06-26T07:42:52.370Z,98825.83
2017-06-26T07:45:19.476Z,98814.84
2017-06-26T07:47:46.544Z,98816.97
2017-06-26T07:50:13.618Z,98823.08
2017-06-26T07:52:40.737Z,98822.19
2017-06-26T07:55:07.858Z,98828.30
2017-06-26T07:57:34.916Z,98829.94
2017-06-26T08:00:02.023Z,98821.61
2017-06-26T08:02:29.087Z,98821.50
2017-06-26T08:04:56.144Z,98821.11
2017-06-26T08:07:23.251Z,98823.67
2017-06-26T08:09:50.309Z,98817.98
2017-06-26T08:12:17.380Z,98822.31
2017-06-26T08:14:44.596Z,98817.48
2017-06-26T08:17:11.655Z,98823.59
2017-06-26T08:19:38.722Z,98820.89
2017-06-26T08:22:05.836Z,98820.04
2017-06-26T08:24:32.909Z,98824.37
2017-06-26T08:26:59.973Z,98815.16
2017-06-26T08:29:27.104Z,98818.57
2017-06-26T08:31:54.164Z,98810.68
2017-06-26T08:34:21.229Z,98816.86
2017-06-26T08:36:48.337Z,98814.63
2017-06-26T08:39:15.409Z,98818.95
2017-06-26T08:41:42.479Z,98815.55
2017-06-26T08:44:09.591Z,98818.49
2017-06-26T08:46:36.662Z,98813.66
2017-06-26T08:49:03.725Z,98811.42
2017-06-26T08:51:30.845Z,98817.95
2017-06-26T08:53:57.913Z,98813.55
2017-06-26T08:56:24.978Z,98817.95
2017-06-26T08:58:52.153Z,98811.34
2017-06-26T09:01:19.217Z,98811.27
2017-06-26T09:03:46.282Z,98810.80
2017-06-26T09:06:13.441Z,98809.91
2017-06-26T09:08:40.507Z,98809.88
2017-06-26T09:11:07.584Z,98816.88
2017-06-26T09:13:34.707Z,98816.45
2017-06-26T09:16:01.773Z,98814.24
2017-06-26T09:18:28.836Z,98820.28
2017-06-26T09:20:55.950Z,98822.02
2017-06-26T09:23:23.014Z,98817.61
2017-06-26T09:25:50.067Z,98815.83
2017-06-26T09:28:17.189Z,98817.03
2017-06-26T09:30:44.256Z,98822.72
2017-06-26T09:33:11.332Z,98816.14
2017-06-26T09:35:38.443Z,98816.57
2017-06-26T09:38:05.511Z,98822.22
2017-06-26T09:40:32.576Z,98809.50
2017-06-26T09:42:59.685Z,98814.76
2017-06-26T09:45:26.755Z,98811.23
2017-06-26T09:47:53.822Z,98809.50
2017-06-26T09:50:20.946Z,98798.08
2017-06-26T09:52:48.004Z,98791.50
2017-06-26T09:55:15.067Z,98799.82
2017-06-26T09:57:42.192Z,98791.46
2017-06-26T10:00:09.255Z,98790.45
2017-06-26T10:02:36.334Z,98787.41
2017-06-26T10:05:03.453Z,98789.56
2017-06-26T10:07:30.521Z,98783.84
2017-06-26T10:09:57.589Z,98788.25
2017-06-26T10:12:24.706Z,98783.41
2017-06-26T10:14:51.776Z,98778.58
2017-06-26T10:17:18.834Z,98782.84
2017-06-26T10:19:45.939Z,98778.89
2017-06-26T10:22:13.000Z,98779.36
2017-06-26T10:24:40.062Z,98780.20
2017-06-26T10:27:07.176Z,98773.16
2017-06-26T10:29:34.254Z,98772.27
2017-06-26T10:32:01.315Z,98776.22
2017-06-26T10:34:28.429Z,98775.68
2017-06-26T10:36:55.495Z,98780.05
2017-06-26T10:39:22.564Z,98777.84
2017-06-26T10:41:49.693Z,98777.38
2017-06-26T10:44:16.767Z,98769.10
2017-06-26T10:46:43.831Z,98767.75
2017-06-26T10:49:10.933Z,98773.01
2017-06-26T10:51:37.988Z,98768.52
2017-06-26T10:54:05.056Z,98765.47
2017-06-26T10:56:32.166Z,98765.42
2017-06-26T10:58:59.257Z,98767.59
2017-06-26T11:01:26.323Z,98757.48
2017-06-26T11:03:53.432Z,98754.78
2017-06-26T11:06:20.505Z,98755.21
2017-06-26T11:08:47.583Z,98746.00
2017-06-26T11:11:14.712Z,98750.75
2017-06-26T11:13:41.777Z,98752.54
2017-06-26T11:16:08.846Z,98741.94
2017-06-26T11:18:35.960Z,98743.21
2017-06-26T11:21:03.028Z,98739.69
2017-06-26T11:23:30.101Z,98732.22
2017-06-26T11:25:57.216Z,98730.02
2017-06-26T11:28:24.277Z,98722.55
2017-06-26T11:30:51.428Z,98728.63
2017-06-26T11:33:18.534Z,98715.00
2017-06-26T11:35:45.592Z,98720.69
2017-06-26T11:38:12.654Z,98714.95
2017-06-26T11:40:39.761Z,98707.45
2017-06-26T11:43:06.824Z,98705.28
2017-06-26T11:45:33.886Z,98699.97
2017-06-26T11:48:00.995Z,98695.14
2017-06-26T11:50:28.072Z,98692.08
2017-06-26T11:52:55.132Z,98689.83
2017-06-26T11:55:22.237Z,98679.73
2017-06-26T11:57:49.293Z,98668.31
2017-06-26T12:00:16.355Z,98670.41
2017-06-26T12:02:43.463Z,98674.81
2017-06-26T12:05:10.527Z,98673.45
2017-06-26T12:07:37.598Z,98672.09
2017-06-26T12:10:04.728Z,98663.36
2017-06-26T12:12:31.791Z,98661.14
2017-06-26T12:14:58.852Z,98657.97
2017-06-26T12:17:25.959Z,98649.66
2017-06-26T12:19:53.015Z,98649.19
2017-06-26T12:22:20.075Z,98648.30
2017-06-26T12:24:47.191Z,98639.51
2017-06-26T12:27:14.262Z,98639.86
2017-06-26T12:29:41.333Z,98639.81
2017-06-26T12:32:08.450Z,98633.23
2017-06-26T12:34:35.522Z,98634.97
2017-06-26T12:37:02.591Z,98631.03
2017-06-26T12:39:29.701Z,98629.17
2017-06-26T12:41:56.766Z,98630.95
2017-06-26T12:44:23.841Z,98634.90
2017-06-26T12:46:50.949Z,98633.11
2017-06-26T12:49:18.019Z,98630.86
2017-06-26T12:51:45.069Z,98623.86
2017-06-26T12:54:12.181Z,98622.50
2017-06-26T12:56:39.271Z,98622.08
2017-06-26T12:59:06.425Z,98623.31
2017-06-26T13:01:33.531Z,98620.69
2017-06-26T13:04:00.593Z,98624.59
2017-06-26T13:06:27.649Z,98626.68
2017-06-26T13:08:54.760Z,98629.31
2017-06-26T13:11:21.823Z,98620.48
2017-06-26T13:13:48.885Z,98614.79
2017-06-26T13:16:15.987Z,98612.54
2017-06-26T13:18:43.048Z,98608.94
2017-06-26T13:21:10.107Z,98604.56
2017-06-26T13:23:37.220Z,98602.78
2017-06-26T13:26:04.284Z,98592.64
2017-06-26T13:28:31.345Z,98596.97
2017-06-26T13:30:58.446Z,98592.64
2017-06-26T13:33:25.515Z,98595.15
2017-06-26T13:35:52.578Z,98598.63
2017-06-26T13:38:19.683Z,98591.55
2017-06-26T13:40:46.736Z,98585.81
2017-06-26T13:43:13.797Z,98581.40
2017-06-26T13:45:40.897Z,98584.88
2017-06-26T13:48:07.955Z,98581.28
2017-06-26T13:50:35.013Z,98577.28
2017-06-26T13:53:02.122Z,98576.34
2017-06-26T13:55:29.184Z,98572.40
2017-06-26T13:57:56.243Z,98563.58
2017-06-26T14:00:23.357Z,98563.53
2017-06-26T14:02:50.412Z,98559.11
2017-06-26T14:05:17.476Z,98563.91
2017-06-26T14:07:44.586Z,98565.58
2017-06-26T14:10:11.647Z,98561.20
2017-06-26T14:12:38.716Z,98554.16
2017-06-26T14:15:05.824Z,98560.69
2017-06-26T14:17:32.884Z,98548.77
2017-06-26T14:19:59.941Z,98541.76
2017-06-26T14:22:27.046Z,98540.87
2017-06-26T14:24:54.107Z,98541.72
2017-06-26T14:27:21.172Z,98547.36
2017-06-26T14:29:48.283Z,98538.96
2017-06-26T14:32:15.352Z,98542.44
2017-06-26T14:34:42.421Z,98542.44
2017-06-26T14:37:09.528Z,98531.86
2017-06-26T14:39:36.585Z,98536.23
2017-06-26T14:42:03.641Z,98527.80
2017-06-26T14:44:30.750Z,98532.59
2017-06-26T14:46:57.808Z,98526.43
2017-06-26T14:49:24.870Z,98521.52
2017-06-26T14:51:51.983Z,98521.13
2017-06-26T14:54:19.040Z,98525.41
2017-06-26T14:56:46.101Z,98519.25
2017-06-26T14:59:13.208Z,98517.89
2017-06-26T15:01:40.265Z,98514.76
2017-06-26T15:04:07.323Z,98514.76
2017-06-26T15:06:34.424Z,98506.39
2017-06-26T15:09:01.487Z,98499.38
2017-06-26T15:11:28.539Z,98504.14
2017-06-26T15:13:55.644Z,98507.58
2017-06-26T15:16:22.706Z,98499.22
2017-06-26T15:18:49.763Z,98493.48
2017-06-26T15:21:16.863Z,98492.63
2017-06-26T15:23:43.919Z,98492.54
2017-06-26T15:26:10.996Z,98492.54
2017-06-26T15:28:38.107Z,98489.41
2017-06-26T15:31:05.171Z,98487.62
2017-06-26T15:33:32.237Z,98481.03
2017-06-26T15:35:59.363Z,98479.20
2017-06-26T15:38:26.543Z,98481.34
2017-06-26T15:40:53.600Z,98480.02
2017-06-26T15:43:20.707Z,98486.09
2017-06-26T15:45:47.906Z,98476.80
2017-06-26T15:48:15.135Z,98474.16
2017-06-26T15:50:42.236Z,98473.22
2017-06-26T15:53:09.291Z,98474.48
2017-06-26T15:55:36.351Z,98469.22
2017-06-26T15:58:03.475Z,98468.25
2017-06-26T16:00:30.536Z,98469.99
2017-06-26T16:02:57.596Z,98464.50
2017-06-26T16:05:24.699Z,98467.36
2017-06-26T16:07:51.757Z,98457.20
2017-06-26T16:10:18.817Z,98456.26
2017-06-26T16:12:45.932Z,98453.13
2017-06-26T16:15:12.993Z,98452.19
2017-06-26T16:17:40.072Z,98446.37
2017-06-26T16:20:07.177Z,98439.27
2017-06-26T16:22:34.248Z,98440.16
2017-06-26T16:25:01.382Z,98436.63
2017-06-26T16:27:28.487Z,98437.95
2017-06-26T16:29:55.547Z,98429.16
2017-06-26T16:32:22.624Z,98434.42
2017-06-26T16:34:49.723Z,98437.87
2017-06-26T16:37:16.780Z,98436.63
2017-06-26T16:39:43.837Z,98433.92
2017-06-26T16:42:10.956Z,98436.03
2017-06-26T16:44:38.027Z,98435.19
2017-06-26T16:47:05.098Z,98434.72
2017-06-26T16:49:32.207Z,98433.31
2017-06-26T16:51:59.268Z,98434.30
2017-06-26T16:54:26.335Z,98432.84
2017-06-26T16:56:53.454Z,98432.42
2017-06-26T16:59:20.516Z,98431.06
2017-06-26T17:01:47.576Z,98431.48
2017-06-26T17:04:14.689Z,98423.58
2017-06-26T17:06:41.748Z,98420.48
2017-06-26T17:09:08.803Z,98428.38
2017-06-26T17:11:35.908Z,98427.88
2017-06-26T17:14:02.971Z,98427.02
2017-06-26T17:16:30.059Z,98426.13
2017-06-26T17:18:57.194Z,98426.08
2017-06-26T17:21:24.257Z,98424.70
2017-06-26T17:23:51.310Z,98421.66
2017-06-26T17:26:18.419Z,98420.34
2017-06-26T17:28:45.481Z,98419.02
2017-06-26T17:31:12.558Z,98422.47
2017-06-26T17:33:39.662Z,98424.63
2017-06-26T17:36:06.724Z,98423.69
2017-06-26T17:38:33.785Z,98424.63
2017-06-26T17:41:00.884Z,98425.47
2017-06-26T17:43:27.953Z,98427.69
2017-06-26T17:45:55.023Z,98429.38
2017-06-26T17:48:22.137Z,98428.88
2017-06-26T17:50:49.385Z,98432.83
2017-06-26T17:53:16.452Z,98428.41
2017-06-26T17:55:43.569Z,98427.52
2017-06-26T17:58:10.637Z,98430.99
2017-06-26T18:00:37.705Z,98433.20
2017-06-26T18:03:04.819Z,98437.50
2017-06-26T18:05:31.877Z,98441.95
2017-06-26T18:07:58.937Z,98443.69
2017-06-26T18:10:26.046Z,98442.30
2017-06-26T18:12:53.098Z,98439.19
2017-06-26T18:15:20.172Z,98443.61
2017-06-26T18:17:47.291Z,98436.13
2017-06-26T18:20:14.352Z,98437.87
2017-06-26T18:22:41.415Z,98433.45
2017-06-26T18:25:08.540Z,98441.36
2017-06-26T18:27:35.616Z,98434.30
2017-06-26T18:30:02.703Z,98433.88
2017-06-26T18:32:29.806Z,98425.47
2017-06-26T18:34:56.925Z,98421.05
2017-06-26T18:37:23.987Z,98414.93
2017-06-26T18:39:51.088Z,98417.09
2017-06-26T18:42:18.153Z,98416.20
2017-06-26T18:44:45.220Z,98422.83
2017-06-26T18:47:12.315Z,98419.30
2017-06-26T18:49:39.377Z,98424.53
2017-06-26T18:52:06.486Z,98427.16
2017-06-26T18:54:33.548Z,98423.63
2017-06-26T18:57:00.608Z,98431.96
2017-06-26T18:59:27.762Z,98429.33
2017-06-26T19:01:54.828Z,98429.33
2017-06-26T19:04:21.966Z,98427.54
2017-06-26T19:06:49.073Z,98421.42
2017-06-26T19:09:16.135Z,98423.63
2017-06-26T19:11:43.198Z,98419.63
2017-06-26T19:14:10.312Z,98424.91
2017-06-26T19:16:37.374Z,98426.56
2017-06-26T19:19:04.431Z,98431.06
2017-06-26T19:21:31.536Z,98428.77
2017-06-26T19:23:58.593Z,98436.63
2017-06-26T19:26:25.653Z,98436.25
2017-06-26T19:28:52.775Z,98440.58
2017-06-26T19:31:19.837Z,98441.00
2017-06-26T19:33:46.895Z,98438.80
2017-06-26T19:36:14.000Z,98437.05
2017-06-26T19:38:41.065Z,98441.08
2017-06-26T19:41:08.121Z,98448.94
2017-06-26T19:43:35.226Z,98445.05
2017-06-26T19:46:02.300Z,98450.96
2017-06-26T19:48:29.363Z,98459.39
2017-06-26T19:50:56.463Z,98459.47
2017-06-26T19:53:23.526Z,98460.36
2017-06-26T19:55:50.587Z,98467.84
2017-06-26T19:58:17.685Z,98476.34
2017-06-26T20:00:44.742Z,98477.29
2017-06-26T20:03:11.799Z,98476.95
2017-06-26T20:05:39.001Z,98477.55
2017-06-26T20:08:06.061Z,98475.85
2017-06-26T20:10:33.115Z,98479.46
2017-06-26T20:13:00.230Z,98475.13
2017-06-26T20:15:27.287Z,98473.05
2017-06-26T20:17:54.357Z,98482.31
2017-06-26T20:20:21.464Z,98481.12
2017-06-26T20:22:48.524Z,98485.59
2017-06-26T20:25:15.587Z,98487.91
2017-06-26T20:27:42.700Z,98485.34
2017-06-26T20:30:09.766Z,98491.09
2017-06-26T20:32:36.915Z,98494.50
2017-06-26T20:35:04.021Z,98490.13
2017-06-26T20:37:31.085Z,98489.02
2017-06-26T20:39:58.148Z,98485.63
2017-06-26T20:42:25.268Z,98487.58
2017-06-26T20:44:52.330Z,98491.61
2017-06-26T20:47:19.386Z,98494.08
2017-06-26T20:49:46.492Z,98493.69
2017-06-26T20:52:13.627Z,98493.27
2017-06-26T20:54:40.705Z,98487.02
2017-06-26T20:57:07.831Z,98489.66
2017-06-26T20:59:34.900Z,98490.13
2017-06-26T21:02:01.960Z,98494.59
2017-06-26T21:04:29.074Z,98497.17
2017-06-26T21:06:56.149Z,98494.37
2017-06-26T21:09:23.231Z,98496.66
2017-06-26T21:11:50.351Z,98504.73
2017-06-26T21:14:17.416Z,98508.21
2017-06-26T21:16:44.485Z,98510.08
2017-06-26T21:19:11.600Z,98507.53
2017-06-26T21:21:38.673Z,98519.46
2017-06-26T21:24:06.596Z,98527.95
2017-06-26T21:26:33.731Z,98531.05
2017-06-26T21:29:00.809Z,98530.58
2017-06-26T21:31:27.909Z,98535.71
2017-06-26T21:33:55.041Z,98534.80
2017-06-26T21:36:22.115Z,98535.78
2017-06-26T21:38:49.187Z,98537.49
2017-06-26T21:41:16.314Z,98535.23
2017-06-26T21:43:43.381Z,98537.06
2017-06-26T21:46:10.524Z,98554.52
2017-06-26T21:48:37.626Z,98548.55
2017-06-26T21:51:04.694Z,98553.77
2017-06-26T21:53:31.810Z,98557.50
2017-06-26T21:55:58.917Z,98564.38
2017-06-26T21:58:26.070Z,98564.28
2017-06-26T22:00:53.167Z,98563.72
2017-06-26T22:03:20.237Z,98564.27
2017-06-26T22:05:47.362Z,98571.99
2017-06-26T22:08:14.429Z,98570.02
2017-06-26T22:10:41.499Z,98570.42
2017-06-26T22:13:08.618Z,98565.16
2017-06-26T22:15:35.685Z,98564.77
2017-06-26T22:18:02.754Z,98563.11
2017-06-26T22:20:29.861Z,98561.06
2017-06-26T22:22:56.927Z,98552.35
2017-06-26T22:25:24.003Z,98552.40
2017-06-26T22:27:51.113Z,98553.25
2017-06-26T22:30:18.174Z,98557.20
2017-06-26T22:32:45.242Z,98555.08
2017-06-26T22:35:12.352Z,98556.34
2017-06-26T22:37:39.448Z,98554.70
2017-06-26T22:40:06.515Z,98552.37
2017-06-26T22:42:33.647Z,98546.64
2017-06-26T22:45:00.714Z,98545.63
2017-06-26T22:47:27.781Z,98553.48
2017-06-26T22:49:54.912Z,98543.75
2017-06-26T22:52:21.972Z,98541.45
2017-06-26T22:54:49.032Z,98543.10
2017-06-26T22:57:16.144Z,98541.60
2017-06-26T22:59:43.216Z,98537.82
2017-06-26T23:02:10.279Z,98540.96
2017-06-26T23:04:37.388Z,98544.52
2017-06-26T23:07:04.452Z,98552.17
2017-06-26T23:09:31.541Z,98554.34
2017-06-26T23:11:58.656Z,98580.87
2017-06-26T23:14:25.711Z,98592.08
2017-06-26T23:16:52.932Z,98610.69
2017-06-26T23:19:20.039Z,98621.02
2017-06-26T23:21:47.103Z,98636.92
2017-06-26T23:24:14.159Z,98643.03
2017-06-26T23:26:41.265Z,98650.64
2017-06-26T23:29:08.340Z,98659.17
2017-06-26T23:31:35.423Z,98653.30
2017-06-26T23:34:02.530Z,98660.84
2017-06-26T23:36:29.593Z,98645.88
2017-06-26T23:38:56.653Z,98646.92
2017-06-26T23:41:23.776Z,98650.30
2017-06-26T23:43:50.867Z,98647.67
2017-06-26T23:46:17.930Z,98642.41
2017-06-26T23:48:45.254Z,98638.36
2017-06-26T23:51:12.419Z,98641.06
2017-06-26T23:53:39.488Z,98632.24
2017-06-26T23:56:06.599Z,98628.19
2017-06-26T23:58:33.650Z,98630.05
